sensor_id;sensor_type;location;lat;lon;timestamp;P1;durP1;ratioP1;P2;durP2;ratioP2
16640;SDS011;8434;47.990;7.880;2023-10-19T00:02:25;3.37;;;2.17;;
16640;SDS011;8434;47.990;7.880;2023-10-19T00:05:09;4.77;;;1.70;;
16640;SDS011;8434;47.990;7.880;2023-10-19T00:07:56;4.47;;;2.07;;
16640;SDS011;8434;47.990;7.880;2023-10-19T00:10:44;3.00;;;1.80;;
16640;SDS011;8434;47.990;7.880;2023-10-19T00:13:31;4.03;;;1.70;;
16640;SDS011;8434;47.990;7.880;2023-10-19T00:16:19;3.70;;;1.60;;
16640;SDS011;8434;47.990;7.880;2023-10-19T00:19:06;4.60;;;1.93;;
16640;SDS011;8434;47.990;7.880;2023-10-19T00:21:52;3.53;;;1.70;;
16640;SDS011;8434;47.990;7.880;2023-10-19T00:24:39;3.00;;;1.90;;
16640;SDS011;8434;47.990;7.880;2023-10-19T00:27:27;3.90;;;2.20;;
16640;SDS011;8434;47.990;7.880;2023-10-19T00:30:11;4.50;;;1.97;;
16640;SDS011;8434;47.990;7.880;2023-10-19T00:33:02;3.03;;;2.07;;
16640;SDS011;8434;47.990;7.880;2023-10-19T00:35:50;4.27;;;2.70;;
16640;SDS011;8434;47.990;7.880;2023-10-19T00:38:41;7.03;;;2.83;;
16640;SDS011;8434;47.990;7.880;2023-10-19T00:41:35;3.83;;;3.00;;
16640;SDS011;8434;47.990;7.880;2023-10-19T00:44:23;38.60;;;4.53;;
16640;SDS011;8434;47.990;7.880;2023-10-19T00:47:19;5.60;;;2.83;;
16640;SDS011;8434;47.990;7.880;2023-10-19T00:50:08;4.70;;;3.37;;
16640;SDS011;8434;47.990;7.880;2023-10-19T00:53:03;4.90;;;2.73;;
16640;SDS011;8434;47.990;7.880;2023-10-19T00:55:52;4.53;;;3.17;;
16640;SDS011;8434;47.990;7.880;2023-10-19T00:58:37;5.27;;;2.80;;
16640;SDS011;8434;47.990;7.880;2023-10-19T01:01:26;3.77;;;2.50;;
16640;SDS011;8434;47.990;7.880;2023-10-19T01:04:13;5.83;;;2.80;;
16640;SDS011;8434;47.990;7.880;2023-10-19T01:07:01;4.57;;;2.53;;
16640;SDS011;8434;47.990;7.880;2023-10-19T01:09:49;3.50;;;2.03;;
16640;SDS011;8434;47.990;7.880;2023-10-19T01:12:37;5.93;;;3.57;;
16640;SDS011;8434;47.990;7.880;2023-10-19T01:15:23;5.93;;;3.37;;
16640;SDS011;8434;47.990;7.880;2023-10-19T01:18:15;6.90;;;4.60;;
16640;SDS011;8434;47.990;7.880;2023-10-19T01:21:02;4.03;;;3.50;;
16640;SDS011;8434;47.990;7.880;2023-10-19T01:23:51;12.33;;;5.40;;
16640;SDS011;8434;47.990;7.880;2023-10-19T01:26:37;4.60;;;3.77;;
16640;SDS011;8434;47.990;7.880;2023-10-19T01:29:22;5.80;;;3.73;;
16640;SDS011;8434;47.990;7.880;2023-10-19T01:32:11;5.63;;;4.37;;
16640;SDS011;8434;47.990;7.880;2023-10-19T01:34:59;6.40;;;4.13;;
16640;SDS011;8434;47.990;7.880;2023-10-19T01:37:44;6.50;;;4.00;;
16640;SDS011;8434;47.990;7.880;2023-10-19T01:40:30;5.20;;;3.50;;
16640;SDS011;8434;47.990;7.880;2023-10-19T01:43:17;20.10;;;3.20;;
16640;SDS011;8434;47.990;7.880;2023-10-19T01:46:05;4.67;;;2.80;;
16640;SDS011;8434;47.990;7.880;2023-10-19T01:48:55;3.27;;;2.87;;
16640;SDS011;8434;47.990;7.880;2023-10-19T01:51:43;4.03;;;2.20;;
16640;SDS011;8434;47.990;7.880;2023-10-19T01:54:31;4.83;;;2.70;;
16640;SDS011;8434;47.990;7.880;2023-10-19T01:57:19;4.27;;;1.83;;
16640;SDS011;8434;47.990;7.880;2023-10-19T02:00:05;2.67;;;2.00;;
16640;SDS011;8434;47.990;7.880;2023-10-19T02:02:56;4.23;;;2.07;;
16640;SDS011;8434;47.990;7.880;2023-10-19T02:05:41;6.63;;;2.93;;
16640;SDS011;8434;47.990;7.880;2023-10-19T02:08:27;2.23;;;2.00;;
16640;SDS011;8434;47.990;7.880;2023-10-19T02:11:12;3.63;;;2.53;;
16640;SDS011;8434;47.990;7.880;2023-10-19T02:14:03;3.17;;;2.00;;
16640;SDS011;8434;47.990;7.880;2023-10-19T02:16:57;4.83;;;2.20;;
16640;SDS011;8434;47.990;7.880;2023-10-19T02:19:43;3.83;;;2.10;;
16640;SDS011;8434;47.990;7.880;2023-10-19T02:22:27;5.60;;;2.50;;
16640;SDS011;8434;47.990;7.880;2023-10-19T02:25:13;3.07;;;2.10;;
16640;SDS011;8434;47.990;7.880;2023-10-19T02:27:58;4.10;;;2.23;;
16640;SDS011;8434;47.990;7.880;2023-10-19T02:30:45;3.00;;;2.30;;
16640;SDS011;8434;47.990;7.880;2023-10-19T02:33:29;4.37;;;2.63;;
16640;SDS011;8434;47.990;7.880;2023-10-19T02:36:15;2.93;;;2.60;;
16640;SDS011;8434;47.990;7.880;2023-10-19T02:39:03;2.63;;;2.20;;
16640;SDS011;8434;47.990;7.880;2023-10-19T02:41:51;2.77;;;1.90;;
16640;SDS011;8434;47.990;7.880;2023-10-19T02:44:37;3.93;;;2.13;;
16640;SDS011;8434;47.990;7.880;2023-10-19T02:47:24;4.10;;;2.10;;
16640;SDS011;8434;47.990;7.880;2023-10-19T02:50:08;64.30;;;5.97;;
16640;SDS011;8434;47.990;7.880;2023-10-19T02:52:58;3.90;;;2.23;;
16640;SDS011;8434;47.990;7.880;2023-10-19T02:55:42;2.97;;;2.10;;
16640;SDS011;8434;47.990;7.880;2023-10-19T02:58:28;1.53;;;1.40;;
16640;SDS011;8434;47.990;7.880;2023-10-19T03:01:13;1.70;;;1.60;;
16640;SDS011;8434;47.990;7.880;2023-10-19T03:04:02;4.47;;;2.03;;
16640;SDS011;8434;47.990;7.880;2023-10-19T03:06:48;3.30;;;2.07;;
16640;SDS011;8434;47.990;7.880;2023-10-19T03:09:34;4.83;;;1.70;;
16640;SDS011;8434;47.990;7.880;2023-10-19T03:12:20;2.63;;;1.50;;
16640;SDS011;8434;47.990;7.880;2023-10-19T03:15:09;2.70;;;1.93;;
16640;SDS011;8434;47.990;7.880;2023-10-19T03:17:58;2.93;;;1.43;;
16640;SDS011;8434;47.990;7.880;2023-10-19T03:20:46;3.53;;;1.70;;
16640;SDS011;8434;47.990;7.880;2023-10-19T03:23:30;2.17;;;1.67;;
16640;SDS011;8434;47.990;7.880;2023-10-19T03:26:18;2.43;;;1.50;;
16640;SDS011;8434;47.990;7.880;2023-10-19T03:29:06;4.83;;;1.80;;
16640;SDS011;8434;47.990;7.880;2023-10-19T03:31:56;5.70;;;1.83;;
16640;SDS011;8434;47.990;7.880;2023-10-19T03:34:42;4.07;;;2.47;;
16640;SDS011;8434;47.990;7.880;2023-10-19T03:37:33;5.30;;;2.10;;
16640;SDS011;8434;47.990;7.880;2023-10-19T03:40:20;3.13;;;2.00;;
16640;SDS011;8434;47.990;7.880;2023-10-19T03:43:13;3.83;;;1.43;;
16640;SDS011;8434;47.990;7.880;2023-10-19T03:46:05;3.80;;;1.67;;
16640;SDS011;8434;47.990;7.880;2023-10-19T03:48:58;5.63;;;1.70;;
16640;SDS011;8434;47.990;7.880;2023-10-19T03:51:48;4.07;;;1.97;;
16640;SDS011;8434;47.990;7.880;2023-10-19T03:54:45;2.20;;;1.50;;
16640;SDS011;8434;47.990;7.880;2023-10-19T03:57:31;2.40;;;1.70;;
16640;SDS011;8434;47.990;7.880;2023-10-19T04:00:19;4.30;;;2.30;;
16640;SDS011;8434;47.990;7.880;2023-10-19T04:03:09;2.87;;;1.57;;
16640;SDS011;8434;47.990;7.880;2023-10-19T04:05:54;4.23;;;2.07;;
16640;SDS011;8434;47.990;7.880;2023-10-19T04:08:40;2.77;;;2.00;;
16640;SDS011;8434;47.990;7.880;2023-10-19T04:11:28;1.87;;;1.57;;
16640;SDS011;8434;47.990;7.880;2023-10-19T04:14:16;2.67;;;1.73;;
16640;SDS011;8434;47.990;7.880;2023-10-19T04:17:04;3.33;;;1.60;;
16640;SDS011;8434;47.990;7.880;2023-10-19T04:19:50;10.10;;;2.63;;
16640;SDS011;8434;47.990;7.880;2023-10-19T04:22:36;3.03;;;1.90;;
16640;SDS011;8434;47.990;7.880;2023-10-19T04:25:22;2.30;;;1.70;;
16640;SDS011;8434;47.990;7.880;2023-10-19T04:28:11;8.47;;;1.93;;
16640;SDS011;8434;47.990;7.880;2023-10-19T04:30:57;1.93;;;1.80;;
16640;SDS011;8434;47.990;7.880;2023-10-19T04:33:46;3.60;;;1.90;;
16640;SDS011;8434;47.990;7.880;2023-10-19T04:36:32;4.63;;;2.30;;
16640;SDS011;8434;47.990;7.880;2023-10-19T04:39:17;2.50;;;1.70;;
16640;SDS011;8434;47.990;7.880;2023-10-19T04:42:04;3.43;;;1.90;;
16640;SDS011;8434;47.990;7.880;2023-10-19T04:44:51;3.73;;;2.27;;
16640;SDS011;8434;47.990;7.880;2023-10-19T04:47:36;2.40;;;1.70;;
16640;SDS011;8434;47.990;7.880;2023-10-19T04:50:22;2.00;;;1.80;;
16640;SDS011;8434;47.990;7.880;2023-10-19T04:53:07;2.83;;;1.80;;
16640;SDS011;8434;47.990;7.880;2023-10-19T04:55:53;3.13;;;1.80;;
16640;SDS011;8434;47.990;7.880;2023-10-19T04:58:40;4.87;;;2.13;;
16640;SDS011;8434;47.990;7.880;2023-10-19T05:01:27;3.53;;;2.00;;
16640;SDS011;8434;47.990;7.880;2023-10-19T05:04:12;1.80;;;1.70;;
16640;SDS011;8434;47.990;7.880;2023-10-19T05:06:58;3.90;;;2.20;;
16640;SDS011;8434;47.990;7.880;2023-10-19T05:09:45;2.97;;;2.17;;
16640;SDS011;8434;47.990;7.880;2023-10-19T05:12:34;58.50;;;7.13;;
16640;SDS011;8434;47.990;7.880;2023-10-19T05:15:20;2.80;;;1.90;;
16640;SDS011;8434;47.990;7.880;2023-10-19T05:18:07;6.40;;;3.40;;
16640;SDS011;8434;47.990;7.880;2023-10-19T05:20:52;3.13;;;2.10;;
16640;SDS011;8434;47.990;7.880;2023-10-19T05:23:40;4.27;;;2.40;;
16640;SDS011;8434;47.990;7.880;2023-10-19T05:26:25;7.03;;;3.53;;
16640;SDS011;8434;47.990;7.880;2023-10-19T05:29:11;4.37;;;2.50;;
16640;SDS011;8434;47.990;7.880;2023-10-19T05:31:56;2.97;;;1.70;;
16640;SDS011;8434;47.990;7.880;2023-10-19T05:34:44;20.63;;;2.83;;
16640;SDS011;8434;47.990;7.880;2023-10-19T05:37:29;5.57;;;2.20;;
16640;SDS011;8434;47.990;7.880;2023-10-19T05:40:15;6.37;;;2.20;;
16640;SDS011;8434;47.990;7.880;2023-10-19T05:43:02;3.63;;;1.70;;
16640;SDS011;8434;47.990;7.880;2023-10-19T05:45:48;6.33;;;2.23;;
16640;SDS011;8434;47.990;7.880;2023-10-19T05:48:33;6.13;;;2.03;;
16640;SDS011;8434;47.990;7.880;2023-10-19T05:51:20;3.33;;;2.27;;
16640;SDS011;8434;47.990;7.880;2023-10-19T05:54:06;5.60;;;2.90;;
16640;SDS011;8434;47.990;7.880;2023-10-19T05:56:52;2.53;;;2.03;;
16640;SDS011;8434;47.990;7.880;2023-10-19T05:59:37;5.77;;;2.50;;
16640;SDS011;8434;47.990;7.880;2023-10-19T06:02:23;3.63;;;2.60;;
16640;SDS011;8434;47.990;7.880;2023-10-19T06:05:08;6.07;;;3.47;;
16640;SDS011;8434;47.990;7.880;2023-10-19T06:07:55;4.77;;;2.70;;
16640;SDS011;8434;47.990;7.880;2023-10-19T06:10:40;4.40;;;2.87;;
16640;SDS011;8434;47.990;7.880;2023-10-19T06:13:29;3.87;;;2.57;;
16640;SDS011;8434;47.990;7.880;2023-10-19T06:16:15;5.67;;;2.17;;
16640;SDS011;8434;47.990;7.880;2023-10-19T06:19:00;4.63;;;2.70;;
16640;SDS011;8434;47.990;7.880;2023-10-19T06:21:46;3.17;;;2.33;;
16640;SDS011;8434;47.990;7.880;2023-10-19T06:24:33;5.73;;;2.53;;
16640;SDS011;8434;47.990;7.880;2023-10-19T06:27:18;5.63;;;2.77;;
16640;SDS011;8434;47.990;7.880;2023-10-19T06:30:04;4.53;;;2.60;;
16640;SDS011;8434;47.990;7.880;2023-10-19T06:32:51;4.07;;;2.37;;
16640;SDS011;8434;47.990;7.880;2023-10-19T06:35:36;3.47;;;2.10;;
16640;SDS011;8434;47.990;7.880;2023-10-19T06:38:22;5.93;;;2.40;;
16640;SDS011;8434;47.990;7.880;2023-10-19T06:41:12;4.27;;;2.53;;
16640;SDS011;8434;47.990;7.880;2023-10-19T06:43:58;3.80;;;2.10;;
16640;SDS011;8434;47.990;7.880;2023-10-19T06:46:45;3.47;;;2.03;;
16640;SDS011;8434;47.990;7.880;2023-10-19T06:49:30;2.27;;;2.07;;
16640;SDS011;8434;47.990;7.880;2023-10-19T06:52:15;2.57;;;1.90;;
16640;SDS011;8434;47.990;7.880;2023-10-19T06:55:01;2.63;;;1.90;;
16640;SDS011;8434;47.990;7.880;2023-10-19T06:57:48;2.80;;;2.00;;
16640;SDS011;8434;47.990;7.880;2023-10-19T07:00:34;4.93;;;1.97;;
16640;SDS011;8434;47.990;7.880;2023-10-19T07:03:26;4.43;;;2.10;;
16640;SDS011;8434;47.990;7.880;2023-10-19T07:06:13;2.27;;;1.77;;
16640;SDS011;8434;47.990;7.880;2023-10-19T07:08:58;3.73;;;2.47;;
16640;SDS011;8434;47.990;7.880;2023-10-19T07:11:46;2.47;;;1.93;;
16640;SDS011;8434;47.990;7.880;2023-10-19T07:14:38;6.03;;;2.10;;
16640;SDS011;8434;47.990;7.880;2023-10-19T07:17:26;2.53;;;1.80;;
16640;SDS011;8434;47.990;7.880;2023-10-19T07:20:12;1.70;;;1.60;;
16640;SDS011;8434;47.990;7.880;2023-10-19T07:23:09;4.70;;;1.67;;
16640;SDS011;8434;47.990;7.880;2023-10-19T07:26:03;2.80;;;1.90;;
16640;SDS011;8434;47.990;7.880;2023-10-19T07:28:49;3.13;;;1.80;;
16640;SDS011;8434;47.990;7.880;2023-10-19T07:31:36;1.50;;;1.40;;
16640;SDS011;8434;47.990;7.880;2023-10-19T07:34:23;9.80;;;2.43;;
16640;SDS011;8434;47.990;7.880;2023-10-19T07:37:11;2.03;;;1.63;;
16640;SDS011;8434;47.990;7.880;2023-10-19T07:39:59;3.17;;;1.53;;
16640;SDS011;8434;47.990;7.880;2023-10-19T07:42:44;3.73;;;1.90;;
16640;SDS011;8434;47.990;7.880;2023-10-19T07:45:30;3.00;;;1.83;;
16640;SDS011;8434;47.990;7.880;2023-10-19T07:48:17;1.87;;;1.40;;
16640;SDS011;8434;47.990;7.880;2023-10-19T07:51:03;2.97;;;2.17;;
16640;SDS011;8434;47.990;7.880;2023-10-19T07:53:49;2.73;;;1.40;;
16640;SDS011;8434;47.990;7.880;2023-10-19T07:56:34;3.00;;;1.30;;
16640;SDS011;8434;47.990;7.880;2023-10-19T07:59:19;3.67;;;1.80;;
16640;SDS011;8434;47.990;7.880;2023-10-19T08:02:05;6.10;;;2.13;;
16640;SDS011;8434;47.990;7.880;2023-10-19T08:04:54;5.97;;;1.50;;
16640;SDS011;8434;47.990;7.880;2023-10-19T08:07:40;3.23;;;1.50;;
16640;SDS011;8434;47.990;7.880;2023-10-19T08:10:26;3.43;;;1.47;;
16640;SDS011;8434;47.990;7.880;2023-10-19T08:13:12;1.60;;;1.37;;
16640;SDS011;8434;47.990;7.880;2023-10-19T08:15:58;4.17;;;2.37;;
16640;SDS011;8434;47.990;7.880;2023-10-19T08:18:43;2.03;;;1.37;;
16640;SDS011;8434;47.990;7.880;2023-10-19T08:21:30;2.87;;;1.50;;
16640;SDS011;8434;47.990;7.880;2023-10-19T08:24:15;2.17;;;1.30;;
16640;SDS011;8434;47.990;7.880;2023-10-19T08:27:01;2.20;;;1.30;;
16640;SDS011;8434;47.990;7.880;2023-10-19T08:29:49;2.97;;;1.80;;
16640;SDS011;8434;47.990;7.880;2023-10-19T08:32:34;3.10;;;1.93;;
16640;SDS011;8434;47.990;7.880;2023-10-19T08:35:20;4.70;;;2.37;;
16640;SDS011;8434;47.990;7.880;2023-10-19T08:38:10;2.97;;;1.63;;
16640;SDS011;8434;47.990;7.880;2023-10-19T08:40:56;4.33;;;1.80;;
16640;SDS011;8434;47.990;7.880;2023-10-19T08:43:42;2.60;;;1.80;;
16640;SDS011;8434;47.990;7.880;2023-10-19T08:46:27;2.00;;;1.80;;
16640;SDS011;8434;47.990;7.880;2023-10-19T08:49:14;1.90;;;1.70;;
16640;SDS011;8434;47.990;7.880;2023-10-19T08:51:59;3.13;;;1.50;;
16640;SDS011;8434;47.990;7.880;2023-10-19T08:54:49;2.73;;;1.63;;
16640;SDS011;8434;47.990;7.880;2023-10-19T08:57:35;4.83;;;2.17;;
16640;SDS011;8434;47.990;7.880;2023-10-19T09:00:22;3.50;;;2.80;;
16640;SDS011;8434;47.990;7.880;2023-10-19T09:03:09;3.30;;;2.20;;
16640;SDS011;8434;47.990;7.880;2023-10-19T09:06:00;3.73;;;2.03;;
16640;SDS011;8434;47.990;7.880;2023-10-19T09:08:46;3.83;;;1.57;;
16640;SDS011;8434;47.990;7.880;2023-10-19T09:11:34;1.67;;;1.50;;
16640;SDS011;8434;47.990;7.880;2023-10-19T09:14:30;2.70;;;1.57;;
16640;SDS011;8434;47.990;7.880;2023-10-19T09:17:16;4.07;;;1.60;;
16640;SDS011;8434;47.990;7.880;2023-10-19T09:20:07;1.93;;;1.70;;
16640;SDS011;8434;47.990;7.880;2023-10-19T09:22:54;1.83;;;1.53;;
16640;SDS011;8434;47.990;7.880;2023-10-19T09:25:40;2.00;;;1.40;;
16640;SDS011;8434;47.990;7.880;2023-10-19T09:28:27;2.30;;;1.60;;
16640;SDS011;8434;47.990;7.880;2023-10-19T09:31:12;4.43;;;1.77;;
16640;SDS011;8434;47.990;7.880;2023-10-19T09:33:58;3.23;;;1.70;;
16640;SDS011;8434;47.990;7.880;2023-10-19T09:36:45;3.20;;;2.47;;
16640;SDS011;8434;47.990;7.880;2023-10-19T09:39:30;4.53;;;2.13;;
16640;SDS011;8434;47.990;7.880;2023-10-19T09:42:19;2.33;;;1.70;;
16640;SDS011;8434;47.990;7.880;2023-10-19T09:45:07;3.57;;;2.70;;
16640;SDS011;8434;47.990;7.880;2023-10-19T09:47:54;2.47;;;2.27;;
16640;SDS011;8434;47.990;7.880;2023-10-19T09:50:40;4.97;;;2.60;;
16640;SDS011;8434;47.990;7.880;2023-10-19T09:53:26;4.07;;;2.50;;
16640;SDS011;8434;47.990;7.880;2023-10-19T09:56:13;4.20;;;2.60;;
16640;SDS011;8434;47.990;7.880;2023-10-19T09:59:02;4.33;;;2.40;;
16640;SDS011;8434;47.990;7.880;2023-10-19T10:02:10;5.23;;;2.73;;
16640;SDS011;8434;47.990;7.880;2023-10-19T10:04:57;6.30;;;2.93;;
16640;SDS011;8434;47.990;7.880;2023-10-19T10:07:43;3.20;;;2.40;;
16640;SDS011;8434;47.990;7.880;2023-10-19T10:10:29;3.20;;;2.47;;
16640;SDS011;8434;47.990;7.880;2023-10-19T10:16:21;3.00;;;2.50;;
16640;SDS011;8434;47.990;7.880;2023-10-19T10:19:09;4.47;;;2.80;;
16640;SDS011;8434;47.990;7.880;2023-10-19T10:22:07;3.70;;;2.37;;
16640;SDS011;8434;47.990;7.880;2023-10-19T10:24:56;5.40;;;2.43;;
16640;SDS011;8434;47.990;7.880;2023-10-19T10:27:48;3.00;;;2.40;;
16640;SDS011;8434;47.990;7.880;2023-10-19T10:30:34;2.87;;;2.27;;
16640;SDS011;8434;47.990;7.880;2023-10-19T10:36:21;6.10;;;2.50;;
16640;SDS011;8434;47.990;7.880;2023-10-19T10:39:07;2.67;;;2.20;;
16640;SDS011;8434;47.990;7.880;2023-10-19T10:41:59;1.97;;;1.63;;
16640;SDS011;8434;47.990;7.880;2023-10-19T10:44:46;2.70;;;1.50;;
16640;SDS011;8434;47.990;7.880;2023-10-19T10:47:32;1.63;;;1.43;;
16640;SDS011;8434;47.990;7.880;2023-10-19T10:50:19;1.70;;;1.40;;
16640;SDS011;8434;47.990;7.880;2023-10-19T10:53:06;2.07;;;1.10;;
16640;SDS011;8434;47.990;7.880;2023-10-19T10:55:52;3.50;;;1.20;;
16640;SDS011;8434;47.990;7.880;2023-10-19T10:58:38;1.67;;;1.40;;
16640;SDS011;8434;47.990;7.880;2023-10-19T11:01:27;2.07;;;1.43;;
16640;SDS011;8434;47.990;7.880;2023-10-19T11:04:13;3.23;;;1.67;;
16640;SDS011;8434;47.990;7.880;2023-10-19T11:07:00;1.70;;;1.20;;
16640;SDS011;8434;47.990;7.880;2023-10-19T11:09:47;2.03;;;1.50;;
16640;SDS011;8434;47.990;7.880;2023-10-19T11:12:33;2.70;;;1.63;;
16640;SDS011;8434;47.990;7.880;2023-10-19T11:15:20;1.53;;;1.43;;
16640;SDS011;8434;47.990;7.880;2023-10-19T11:18:06;3.53;;;1.27;;
16640;SDS011;8434;47.990;7.880;2023-10-19T11:20:53;1.20;;;1.10;;
16640;SDS011;8434;47.990;7.880;2023-10-19T11:23:40;1.43;;;1.20;;
16640;SDS011;8434;47.990;7.880;2023-10-19T11:26:27;1.10;;;1.00;;
16640;SDS011;8434;47.990;7.880;2023-10-19T11:29:16;1.33;;;0.90;;
16640;SDS011;8434;47.990;7.880;2023-10-19T11:32:01;1.67;;;1.37;;
16640;SDS011;8434;47.990;7.880;2023-10-19T11:34:47;1.40;;;1.00;;
16640;SDS011;8434;47.990;7.880;2023-10-19T11:37:44;2.37;;;1.33;;
16640;SDS011;8434;47.990;7.880;2023-10-19T11:40:29;1.43;;;1.00;;
16640;SDS011;8434;47.990;7.880;2023-10-19T11:43:16;1.30;;;1.20;;
16640;SDS011;8434;47.990;7.880;2023-10-19T11:46:03;0.90;;;0.90;;
16640;SDS011;8434;47.990;7.880;2023-10-19T11:48:49;1.43;;;0.70;;
16640;SDS011;8434;47.990;7.880;2023-10-19T11:51:35;2.63;;;0.97;;
16640;SDS011;8434;47.990;7.880;2023-10-19T11:54:21;1.63;;;0.80;;
16640;SDS011;8434;47.990;7.880;2023-10-19T11:57:06;0.53;;;0.53;;
16640;SDS011;8434;47.990;7.880;2023-10-19T11:59:53;0.60;;;0.50;;
16640;SDS011;8434;47.990;7.880;2023-10-19T12:02:38;0.50;;;0.50;;
16640;SDS011;8434;47.990;7.880;2023-10-19T12:05:25;1.13;;;0.87;;
16640;SDS011;8434;47.990;7.880;2023-10-19T12:08:10;1.80;;;1.13;;
16640;SDS011;8434;47.990;7.880;2023-10-19T12:10:56;1.33;;;0.80;;
16640;SDS011;8434;47.990;7.880;2023-10-19T12:13:41;1.97;;;1.00;;
16640;SDS011;8434;47.990;7.880;2023-10-19T12:16:28;2.40;;;1.27;;
16640;SDS011;8434;47.990;7.880;2023-10-19T12:19:16;3.00;;;0.73;;
16640;SDS011;8434;47.990;7.880;2023-10-19T12:22:03;1.30;;;0.80;;
16640;SDS011;8434;47.990;7.880;2023-10-19T12:24:48;0.60;;;0.60;;
16640;SDS011;8434;47.990;7.880;2023-10-19T12:27:35;2.57;;;0.80;;
16640;SDS011;8434;47.990;7.880;2023-10-19T12:30:21;0.77;;;0.70;;
16640;SDS011;8434;47.990;7.880;2023-10-19T12:33:11;1.90;;;0.50;;
16640;SDS011;8434;47.990;7.880;2023-10-19T12:35:56;0.50;;;0.50;;
16640;SDS011;8434;47.990;7.880;2023-10-19T12:38:42;1.20;;;0.70;;
16640;SDS011;8434;47.990;7.880;2023-10-19T12:41:27;0.87;;;0.50;;
16640;SDS011;8434;47.990;7.880;2023-10-19T12:44:13;0.70;;;0.50;;
16640;SDS011;8434;47.990;7.880;2023-10-19T12:46:59;0.90;;;0.57;;
16640;SDS011;8434;47.990;7.880;2023-10-19T12:49:46;2.37;;;0.50;;
16640;SDS011;8434;47.990;7.880;2023-10-19T12:52:32;0.63;;;0.40;;
16640;SDS011;8434;47.990;7.880;2023-10-19T12:55:21;1.83;;;0.60;;
16640;SDS011;8434;47.990;7.880;2023-10-19T12:58:11;1.00;;;0.63;;
16640;SDS011;8434;47.990;7.880;2023-10-19T13:00:59;1.03;;;0.70;;
16640;SDS011;8434;47.990;7.880;2023-10-19T13:03:45;2.40;;;1.50;;
16640;SDS011;8434;47.990;7.880;2023-10-19T13:06:32;0.73;;;0.67;;
16640;SDS011;8434;47.990;7.880;2023-10-19T13:09:17;1.57;;;0.63;;
16640;SDS011;8434;47.990;7.880;2023-10-19T13:12:06;1.23;;;0.60;;
16640;SDS011;8434;47.990;7.880;2023-10-19T13:14:53;0.57;;;0.53;;
16640;SDS011;8434;47.990;7.880;2023-10-19T13:17:40;1.10;;;0.67;;
16640;SDS011;8434;47.990;7.880;2023-10-19T13:20:26;0.63;;;0.63;;
16640;SDS011;8434;47.990;7.880;2023-10-19T13:23:20;1.40;;;0.80;;
16640;SDS011;8434;47.990;7.880;2023-10-19T13:26:06;2.70;;;1.00;;
16640;SDS011;8434;47.990;7.880;2023-10-19T13:29:01;1.37;;;0.70;;
16640;SDS011;8434;47.990;7.880;2023-10-19T13:31:49;2.83;;;1.00;;
16640;SDS011;8434;47.990;7.880;2023-10-19T13:34:35;0.60;;;0.50;;
16640;SDS011;8434;47.990;7.880;2023-10-19T13:37:22;0.77;;;0.47;;
16640;SDS011;8434;47.990;7.880;2023-10-19T13:40:10;0.60;;;0.50;;
16640;SDS011;8434;47.990;7.880;2023-10-19T13:42:56;0.53;;;0.53;;
16640;SDS011;8434;47.990;7.880;2023-10-19T13:46:00;2.10;;;0.80;;
16640;SDS011;8434;47.990;7.880;2023-10-19T13:48:45;2.77;;;0.73;;
16640;SDS011;8434;47.990;7.880;2023-10-19T13:51:31;1.30;;;1.20;;
16640;SDS011;8434;47.990;7.880;2023-10-19T13:54:17;0.73;;;0.50;;
16640;SDS011;8434;47.990;7.880;2023-10-19T13:57:03;0.83;;;0.53;;
16640;SDS011;8434;47.990;7.880;2023-10-19T13:59:49;0.90;;;0.60;;
16640;SDS011;8434;47.990;7.880;2023-10-19T14:02:35;1.17;;;0.63;;
16640;SDS011;8434;47.990;7.880;2023-10-19T14:05:20;1.17;;;0.70;;
16640;SDS011;8434;47.990;7.880;2023-10-19T14:08:08;1.77;;;0.60;;
16640;SDS011;8434;47.990;7.880;2023-10-19T14:11:00;2.13;;;0.90;;
16640;SDS011;8434;47.990;7.880;2023-10-19T14:13:47;1.23;;;0.60;;
16640;SDS011;8434;47.990;7.880;2023-10-19T14:16:34;1.53;;;1.30;;
16640;SDS011;8434;47.990;7.880;2023-10-19T14:19:20;1.90;;;1.40;;
16640;SDS011;8434;47.990;7.880;2023-10-19T14:22:06;2.53;;;1.50;;
16640;SDS011;8434;47.990;7.880;2023-10-19T14:24:52;1.60;;;1.00;;
16640;SDS011;8434;47.990;7.880;2023-10-19T14:27:38;2.13;;;1.20;;
16640;SDS011;8434;47.990;7.880;2023-10-19T14:30:26;1.63;;;1.10;;
16640;SDS011;8434;47.990;7.880;2023-10-19T14:33:13;0.90;;;0.80;;
16640;SDS011;8434;47.990;7.880;2023-10-19T14:35:59;1.07;;;0.73;;
16640;SDS011;8434;47.990;7.880;2023-10-19T14:38:45;1.20;;;0.90;;
16640;SDS011;8434;47.990;7.880;2023-10-19T14:41:31;1.50;;;0.93;;
16640;SDS011;8434;47.990;7.880;2023-10-19T14:44:17;1.00;;;0.90;;
16640;SDS011;8434;47.990;7.880;2023-10-19T14:47:05;0.97;;;0.80;;
16640;SDS011;8434;47.990;7.880;2023-10-19T14:49:51;1.13;;;0.93;;
16640;SDS011;8434;47.990;7.880;2023-10-19T14:52:37;1.07;;;0.93;;
16640;SDS011;8434;47.990;7.880;2023-10-19T14:55:23;2.93;;;1.10;;
16640;SDS011;8434;47.990;7.880;2023-10-19T14:58:10;2.10;;;1.07;;
16640;SDS011;8434;47.990;7.880;2023-10-19T15:00:56;2.03;;;1.00;;
16640;SDS011;8434;47.990;7.880;2023-10-19T15:03:42;1.37;;;1.07;;
16640;SDS011;8434;47.990;7.880;2023-10-19T15:06:28;1.10;;;0.97;;
16640;SDS011;8434;47.990;7.880;2023-10-19T15:09:15;4.00;;;1.40;;
16640;SDS011;8434;47.990;7.880;2023-10-19T15:12:05;2.80;;;1.30;;
16640;SDS011;8434;47.990;7.880;2023-10-19T15:14:51;1.23;;;1.10;;
16640;SDS011;8434;47.990;7.880;2023-10-19T15:17:37;1.87;;;1.30;;
16640;SDS011;8434;47.990;7.880;2023-10-19T15:20:25;1.77;;;1.50;;
16640;SDS011;8434;47.990;7.880;2023-10-19T15:23:11;2.83;;;1.60;;
16640;SDS011;8434;47.990;7.880;2023-10-19T15:25:57;2.00;;;1.30;;
16640;SDS011;8434;47.990;7.880;2023-10-19T15:28:42;2.10;;;1.57;;
16640;SDS011;8434;47.990;7.880;2023-10-19T15:31:28;3.80;;;1.27;;
16640;SDS011;8434;47.990;7.880;2023-10-19T15:34:13;3.30;;;1.63;;
16640;SDS011;8434;47.990;7.880;2023-10-19T15:37:02;2.60;;;1.67;;
16640;SDS011;8434;47.990;7.880;2023-10-19T15:39:47;3.43;;;2.43;;
16640;SDS011;8434;47.990;7.880;2023-10-19T15:42:32;2.33;;;1.50;;
16640;SDS011;8434;47.990;7.880;2023-10-19T15:45:20;1.20;;;1.10;;
16640;SDS011;8434;47.990;7.880;2023-10-19T15:48:06;2.30;;;1.20;;
16640;SDS011;8434;47.990;7.880;2023-10-19T15:50:53;1.83;;;1.33;;
16640;SDS011;8434;47.990;7.880;2023-10-19T15:53:40;2.10;;;1.47;;
16640;SDS011;8434;47.990;7.880;2023-10-19T15:56:26;2.13;;;1.63;;
16640;SDS011;8434;47.990;7.880;2023-10-19T15:59:12;2.73;;;1.40;;
16640;SDS011;8434;47.990;7.880;2023-10-19T16:01:58;2.27;;;1.83;;
16640;SDS011;8434;47.990;7.880;2023-10-19T16:04:44;2.20;;;1.57;;
16640;SDS011;8434;47.990;7.880;2023-10-19T16:07:29;2.13;;;1.40;;
16640;SDS011;8434;47.990;7.880;2023-10-19T16:10:17;2.20;;;2.00;;
16640;SDS011;8434;47.990;7.880;2023-10-19T16:13:04;3.00;;;1.97;;
16640;SDS011;8434;47.990;7.880;2023-10-19T16:15:50;3.57;;;1.93;;
16640;SDS011;8434;47.990;7.880;2023-10-19T16:18:36;1.97;;;1.80;;
16640;SDS011;8434;47.990;7.880;2023-10-19T16:21:22;3.80;;;2.20;;
16640;SDS011;8434;47.990;7.880;2023-10-19T16:24:09;2.60;;;1.70;;
16640;SDS011;8434;47.990;7.880;2023-10-19T16:26:56;3.23;;;1.83;;
16640;SDS011;8434;47.990;7.880;2023-10-19T16:29:42;10.23;;;3.03;;
16640;SDS011;8434;47.990;7.880;2023-10-19T16:32:27;2.67;;;1.80;;
16640;SDS011;8434;47.990;7.880;2023-10-19T16:35:14;1.97;;;1.80;;
16640;SDS011;8434;47.990;7.880;2023-10-19T16:38:00;1.97;;;1.73;;
16640;SDS011;8434;47.990;7.880;2023-10-19T16:40:45;3.07;;;1.40;;
16640;SDS011;8434;47.990;7.880;2023-10-19T16:43:32;2.70;;;1.60;;
16640;SDS011;8434;47.990;7.880;2023-10-19T16:46:17;3.10;;;1.83;;
16640;SDS011;8434;47.990;7.880;2023-10-19T16:49:03;2.20;;;1.70;;
16640;SDS011;8434;47.990;7.880;2023-10-19T16:51:50;2.77;;;1.87;;
16640;SDS011;8434;47.990;7.880;2023-10-19T16:54:35;2.83;;;2.20;;
16640;SDS011;8434;47.990;7.880;2023-10-19T16:57:21;2.73;;;2.10;;
16640;SDS011;8434;47.990;7.880;2023-10-19T17:00:09;2.37;;;1.93;;
16640;SDS011;8434;47.990;7.880;2023-10-19T17:02:57;2.17;;;1.70;;
16640;SDS011;8434;47.990;7.880;2023-10-19T17:05:42;25.83;;;3.03;;
16640;SDS011;8434;47.990;7.880;2023-10-19T17:08:28;2.50;;;2.13;;